Time;durP1;ratioP1;P1;durP2;ratioP2;P2;SDS_P1;SDS_P2;PMS_P1;PMS_P2;Temp;Humidity;BMP_temperature;BMP_pressure;BME280_temperature;BME280_humidity;BME280_pressure;Samples;Min_cycle;Max_cycle;Signal;HPM_P1;HPM_P2
2023/08/20 00:01:58;;;;;;;4.60;3.20;;;;;;;21.93;100.00;99540.05;109660;1250;66796;-72
2023/08/20 00:04:25;;;;;;;4.30;3.90;;;;;;;21.91;100.00;99539.14;109627;1250;71421;-72
2023/08/20 00:06:52;;;;;;;4.10;3.80;;;;;;;21.91;100.00;99536.92;109601;1250;58957;-74
2023/08/20 00:09:19;;;;;;;3.90;3.60;;;;;;;21.93;100.00;99535.30;109581;1250;58952;-72
2023/08/20 00:11:46;;;;;;;4.60;3.50;;;;;;;21.97;100.00;99532.80;109662;1250;73343;-73
2023/08/20 00:14:15;;;;;;;3.70;3.40;;;;;;;21.95;100.00;99535.64;109675;1250;66545;-73
2023/08/20 00:16:43;;;;;;;5.10;3.70;;;;;;;21.88;100.00;99529.55;109662;1250;72383;-73
2023/08/20 00:19:11;;;;;;;3.80;3.30;;;;;;;21.85;100.00;99529.23;109602;1251;60427;-72
2023/08/20 00:21:42;;;;;;;3.40;3.10;;;;;;;21.85;100.00;99527.41;109583;1251;58950;-74
2023/08/20 00:24:09;;;;;;;4.50;3.50;;;;;;;21.89;100.00;99526.48;109509;1250;74468;-74
2023/08/20 00:26:36;;;;;;;5.20;4.00;;;;;;;21.93;100.00;99523.59;109433;1250;66296;-73
2023/08/20 00:29:03;;;;;;;3.90;3.50;;;;;;;22.00;100.00;99517.44;109677;1250;72423;-73
2023/08/20 00:31:30;;;;;;;6.80;3.80;;;;;;;22.08;100.00;99516.34;109631;1250;60432;-73
2023/08/20 00:33:56;;;;;;;3.50;3.30;;;;;;;22.14;100.00;99517.41;109697;1250;58836;-73
2023/08/20 00:36:33;;;;;;;3.90;3.60;;;;;;;22.18;100.00;99513.52;109508;1250;73595;-73
2023/08/20 00:39:00;;;;;;;3.80;3.50;;;;;;;22.20;100.00;99514.85;109598;1250;66616;-73
2023/08/20 00:41:26;;;;;;;4.30;3.90;;;;;;;22.19;100.00;99515.71;109594;1250;71541;-73
2023/08/20 00:43:53;;;;;;;4.10;3.80;;;;;;;22.18;100.00;99519.16;109544;1250;58894;-73
2023/08/20 00:46:19;;;;;;;4.30;3.90;;;;;;;22.18;100.00;99517.53;109664;1250;58913;-74
2023/08/20 00:48:46;;;;;;;4.00;3.70;;;;;;;22.19;100.00;99515.88;109666;1251;73589;-73
2023/08/20 00:51:13;;;;;;;3.80;3.60;;;;;;;22.24;100.00;99513.96;109546;1250;67979;-72
2023/08/20 00:53:39;;;;;;;3.70;3.40;;;;;;;22.30;100.00;99511.56;109505;1250;71787;-72
2023/08/20 00:56:06;;;;;;;5.40;3.60;;;;;;;22.36;100.00;99511.34;109561;1250;60057;-73
2023/08/20 00:58:33;;;;;;;4.50;3.50;;;;;;;22.37;100.00;99510.38;109678;1250;59071;-73
2023/08/20 01:01:00;;;;;;;3.70;3.40;;;;;;;22.36;100.00;99512.38;109724;1250;74652;-74
2023/08/20 01:03:26;;;;;;;4.30;3.90;;;;;;;22.35;100.00;99509.27;109687;1250;67863;-74
2023/08/20 01:05:55;;;;;;;4.10;3.70;;;;;;;22.35;100.00;99511.48;109507;1250;72461;-74
2023/08/20 01:08:29;;;;;;;5.00;4.00;;;;;;;22.36;100.00;99509.39;109390;1251;60278;-72
2023/08/20 01:11:01;;;;;;;4.20;3.80;;;;;;;22.35;100.00;99509.41;109661;1250;59043;-72
2023/08/20 01:13:28;;;;;;;5.70;4.30;;;;;;;22.30;100.00;99507.73;109706;1250;73386;-73
2023/08/20 01:15:55;;;;;;;5.20;4.00;;;;;;;22.25;100.00;99509.04;109672;1250;67752;-74
2023/08/20 01:18:23;;;;;;;4.60;4.00;;;;;;;22.21;100.00;99506.80;109652;1249;72449;-74
2023/08/20 01:21:02;;;;;;;4.80;3.90;;;;;;;22.16;100.00;99504.65;109549;1250;62329;-74
2023/08/20 01:23:53;;;;;;;5.50;3.90;;;;;;;22.08;100.00;99507.83;109633;1250;59220;-74
2023/08/20 01:26:30;;;;;;;4.30;4.00;;;;;;;22.04;100.00;99506.93;109532;1250;74461;-74
2023/08/20 01:28:57;;;;;;;4.00;3.70;;;;;;;22.05;100.00;99504.96;109531;1250;67694;-74
2023/08/20 01:31:23;;;;;;;6.10;3.70;;;;;;;22.05;100.00;99504.16;109727;1250;72491;-74
2023/08/20 01:33:51;;;;;;;5.20;4.00;;;;;;;22.06;100.00;99497.59;109642;1250;59007;-73
2023/08/20 01:36:18;;;;;;;5.20;4.00;;;;;;;22.06;100.00;99501.16;109537;1250;60093;-74
2023/08/20 01:38:44;;;;;;;4.50;4.10;;;;;;;22.05;100.00;99498.63;109451;1250;73420;-74
2023/08/20 01:41:11;;;;;;;5.60;4.70;;;;;;;22.05;100.00;99499.11;109647;1250;59067;-74
2023/08/20 01:43:37;;;;;;;4.70;4.30;;;;;;;22.07;100.00;99499.70;109531;1250;72540;-73
2023/08/20 01:46:05;;;;;;;4.10;3.70;;;;;;;22.09;100.00;99495.60;109589;1250;60939;-74
2023/08/20 01:48:31;;;;;;;4.70;3.80;;;;;;;22.11;100.00;99492.34;109569;1250;60245;-74
2023/08/20 01:50:58;;;;;;;4.20;3.80;;;;;;;22.12;100.00;99490.57;109689;1250;73398;-74
2023/08/20 01:53:24;;;;;;;4.70;3.90;;;;;;;22.09;100.00;99491.96;109663;1250;66441;-73
2023/08/20 01:55:51;;;;;;;4.40;4.10;;;;;;;22.04;100.00;99487.55;109621;1250;71171;-72
2023/08/20 01:58:17;;;;;;;4.50;4.10;;;;;;;21.97;100.00;99487.80;109472;1250;60201;-73
2023/08/20 02:00:45;;;;;;;5.00;4.60;;;;;;;21.89;100.00;99488.02;109584;1250;58867;-73
2023/08/20 02:03:12;;;;;;;4.70;4.40;;;;;;;21.82;100.00;99487.21;109613;1250;73368;-72
2023/08/20 02:05:38;;;;;;;5.10;4.30;;;;;;;21.76;100.00;99489.34;109550;1250;68619;-72
2023/08/20 02:08:08;;;;;;;4.30;4.00;;;;;;;21.74;100.00;99491.89;109621;1250;72533;-73
2023/08/20 02:10:36;;;;;;;7.20;4.10;;;;;;;21.75;100.00;99489.64;109484;1251;60600;-71
2023/08/20 02:13:05;;;;;;;4.90;4.20;;;;;;;21.77;100.00;99486.59;109637;1250;60167;-73
2023/08/20 02:15:31;;;;;;;6.60;4.20;;;;;;;21.75;100.00;99483.69;109511;1250;73599;-72
2023/08/20 02:18:01;;;;;;;4.60;4.30;;;;;;;21.71;100.00;99481.59;109678;1250;66969;-73
2023/08/20 02:20:29;;;;;;;6.00;4.00;;;;;;;21.65;100.00;99481.27;109473;1250;72701;-73
2023/08/20 02:22:56;;;;;;;5.00;4.60;;;;;;;21.62;100.00;99481.73;109527;1253;60151;-73
2023/08/20 02:25:23;;;;;;;7.50;4.40;;;;;;;21.60;100.00;99478.73;109606;1250;60178;-73
2023/08/20 02:27:52;;;;;;;4.20;3.90;;;;;;;21.60;100.00;99479.65;109537;1250;73159;-72
2023/08/20 02:30:18;;;;;;;8.50;4.00;;;;;;;21.61;100.00;99480.39;109722;1250;58988;-72
2023/08/20 02:32:45;;;;;;;4.60;4.20;;;;;;;21.61;100.00;99482.13;109602;1250;72691;-72
2023/08/20 02:35:14;;;;;;;4.80;4.30;;;;;;;21.63;100.00;99484.25;109602;1252;60309;-72
2023/08/20 02:37:41;;;;;;;5.80;5.30;;;;;;;21.64;100.00;99479.23;109703;1250;60238;-72
2023/08/20 02:40:10;;;;;;;4.50;4.10;;;;;;;21.63;100.00;99478.91;109650;1250;74308;-72
2023/08/20 02:42:36;;;;;;;5.30;4.90;;;;;;;21.61;100.00;99478.33;109670;1250;67772;-73
2023/08/20 02:45:04;;;;;;;5.00;4.50;;;;;;;21.57;100.00;99477.34;109618;1250;72395;-72
2023/08/20 02:47:31;;;;;;;5.40;4.40;;;;;;;21.54;100.00;99480.89;109546;1250;61850;-73
2023/08/20 02:49:57;;;;;;;5.30;4.00;;;;;;;21.52;100.00;99478.36;109556;1250;60057;-73
2023/08/20 02:52:24;;;;;;;5.20;4.40;;;;;;;21.50;100.00;99477.52;109708;1250;74458;-73
2023/08/20 02:54:51;;;;;;;4.60;4.30;;;;;;;21.49;100.00;99477.92;109706;1250;67578;-73
2023/08/20 02:57:17;;;;;;;5.60;4.40;;;;;;;21.46;100.00;99480.73;109588;1250;71831;-73
2023/08/20 02:59:44;;;;;;;5.00;4.60;;;;;;;21.41;100.00;99478.59;109540;1250;60134;-72
2023/08/20 03:02:10;;;;;;;5.20;4.80;;;;;;;21.37;100.00;99477.30;109580;1250;60017;-73
2023/08/20 03:04:37;;;;;;;5.40;4.90;;;;;;;21.34;100.00;99476.96;109628;1249;74681;-74
2023/08/20 03:07:04;;;;;;;4.60;4.30;;;;;;;21.30;100.00;99474.57;109705;1250;67689;-72
2023/08/20 03:09:31;;;;;;;5.00;4.50;;;;;;;21.30;100.00;99476.68;109586;1250;72633;-73
2023/08/20 03:11:57;;;;;;;4.90;4.40;;;;;;;21.29;100.00;99479.65;109602;1251;61744;-72
2023/08/20 03:14:24;;;;;;;5.80;4.60;;;;;;;21.29;100.00;99476.44;109698;1250;59281;-72
2023/08/20 03:16:54;;;;;;;5.30;4.60;;;;;;;21.29;100.00;99471.90;109542;1250;73323;-73
2023/08/20 03:19:21;;;;;;;5.10;4.80;;;;;;;21.27;100.00;99470.02;109595;1250;67940;-73
2023/08/20 03:21:47;;;;;;;4.80;4.50;;;;;;;21.24;100.00;99466.58;109700;1250;59085;-73
2023/08/20 03:24:14;;;;;;;5.50;5.00;;;;;;;21.19;100.00;99462.15;109605;1250;60213;-73
2023/08/20 03:26:40;;;;;;;5.60;5.10;;;;;;;21.13;100.00;99461.08;109612;1250;60275;-73
2023/08/20 03:29:07;;;;;;;4.30;4.00;;;;;;;21.08;100.00;99461.17;109517;1250;74395;-73
2023/08/20 03:31:33;;;;;;;5.30;4.60;;;;;;;21.07;100.00;99456.83;109647;1250;67912;-72
2023/08/20 03:34:00;;;;;;;4.20;3.90;;;;;;;21.08;100.00;99454.40;109541;1250;72402;-73
2023/08/20 03:36:28;;;;;;;6.20;4.70;;;;;;;21.08;100.00;99455.23;109573;1250;60329;-73
2023/08/20 03:38:55;;;;;;;6.10;4.70;;;;;;;21.10;100.00;99458.44;109570;1250;60065;-73
2023/08/20 03:41:22;;;;;;;6.10;5.00;;;;;;;21.14;100.00;99463.36;109717;1250;73302;-73
2023/08/20 03:43:49;;;;;;;7.10;5.40;;;;;;;21.19;100.00;99463.07;109606;1250;66883;-72
2023/08/20 03:46:16;;;;;;;6.80;4.90;;;;;;;21.24;100.00;99462.76;109600;1250;72276;-72
2023/08/20 03:48:43;;;;;;;8.00;4.80;;;;;;;21.30;100.00;99459.27;109574;1250;61773;-72
2023/08/20 03:51:10;;;;;;;4.80;4.50;;;;;;;21.36;100.00;99463.38;109586;1250;60145;-72
2023/08/20 03:53:37;;;;;;;4.50;3.90;;;;;;;21.42;100.00;99460.35;109612;1250;75171;-73
2023/08/20 03:56:03;;;;;;;6.20;5.30;;;;;;;21.48;100.00;99461.08;109626;1250;59024;-73
2023/08/20 03:58:32;;;;;;;5.20;4.70;;;;;;;21.60;100.00;99457.24;109699;1250;72722;-73
2023/08/20 04:01:01;;;;;;;5.80;5.20;;;;;;;21.74;100.00;99458.38;109513;1250;60375;-73
2023/08/20 04:03:28;;;;;;;7.60;4.90;;;;;;;21.91;100.00;99458.11;109648;1250;60304;-74
2023/08/20 04:05:54;;;;;;;5.30;4.80;;;;;;;22.10;100.00;99456.83;109675;1252;72809;-72
2023/08/20 04:08:22;;;;;;;9.70;4.80;;;;;;;22.29;100.00;99449.06;109459;1250;66361;-72
2023/08/20 04:10:49;;;;;;;5.40;4.60;;;;;;;22.48;100.00;99446.43;109631;1250;71141;-72
2023/08/20 04:13:16;;;;;;;8.20;4.80;;;;;;;22.67;100.00;99446.42;109649;1250;60732;-72
2023/08/20 04:15:42;;;;;;;5.30;4.80;;;;;;;22.87;100.00;99451.60;109581;1250;60107;-72
2023/08/20 04:18:09;;;;;;;5.30;4.80;;;;;;;23.08;100.00;99457.79;109672;1250;74435;-74
2023/08/20 04:20:37;;;;;;;6.80;5.00;;;;;;;23.28;100.00;99451.81;109671;1250;67180;-75
2023/08/20 04:23:04;;;;;;;5.60;4.90;;;;;;;23.47;100.00;99450.16;109662;1250;71124;-74
2023/08/20 04:25:30;;;;;;;7.70;5.10;;;;;;;23.64;100.00;99449.48;109625;1250;60609;-73
2023/08/20 04:27:57;;;;;;;7.10;4.60;;;;;;;23.77;100.00;99440.92;109676;1250;60188;-73
2023/08/20 04:30:23;;;;;;;6.90;6.20;;;;;;;23.92;100.00;99442.27;109619;1252;74543;-71
2023/08/20 04:32:50;;;;;;;7.80;5.10;;;;;;;24.08;100.00;99438.02;109665;1250;67883;-73
2023/08/20 04:35:17;;;;;;;5.50;5.00;;;;;;;24.25;100.00;99440.67;109688;1250;72353;-72
2023/08/20 04:37:43;;;;;;;5.60;5.00;;;;;;;24.39;100.00;99440.19;109619;1250;61780;-71
2023/08/20 04:40:11;;;;;;;6.90;4.50;;;;;;;24.56;100.00;99441.77;109634;1250;60110;-74
2023/08/20 04:42:38;;;;;;;5.20;4.70;;;;;;;24.80;100.00;99436.77;109688;1250;74634;-70
2023/08/20 04:45:06;;;;;;;5.40;4.90;;;;;;;25.07;100.00;99433.56;109616;1250;66761;-74
2023/08/20 04:47:34;;;;;;;6.00;5.10;;;;;;;25.41;100.00;99438.22;109558;1250;72658;-73
2023/08/20 04:50:03;;;;;;;5.40;4.80;;;;;;;25.75;100.00;99439.20;109502;1250;59371;-74
2023/08/20 04:52:30;;;;;;;6.90;4.60;;;;;;;26.14;100.00;99435.92;109580;1250;59107;-73
2023/08/20 04:54:57;;;;;;;4.50;4.20;;;;;;;26.54;100.00;99434.02;109718;1250;74296;-74
2023/08/20 04:57:23;;;;;;;5.10;4.70;;;;;;;26.92;100.00;99442.63;109599;1250;58994;-77
2023/08/20 04:59:50;;;;;;;7.30;4.70;;;;;;;27.28;100.00;99441.52;109486;1250;72696;-75
2023/08/20 05:02:43;;;;;;;4.70;4.30;;;;;;;27.65;100.00;99442.95;109521;1250;59297;-77
2023/08/20 05:05:12;;;;;;;5.30;4.70;;;;;;;27.88;100.00;99444.31;109572;1250;61861;-74
2023/08/20 05:07:39;;;;;;;6.60;4.50;;;;;;;28.09;100.00;99439.92;109570;1250;74675;-74
2023/08/20 05:10:07;;;;;;;5.10;4.60;;;;;;;28.31;100.00;99443.64;109672;1250;68044;-75
2023/08/20 05:12:33;;;;;;;4.70;3.80;;;;;;;28.58;100.00;99443.17;109523;1250;71202;-74
2023/08/20 05:15:01;;;;;;;5.20;4.30;;;;;;;28.89;100.00;99440.25;109395;1250;202305;-74
2023/08/20 05:17:28;;;;;;;4.40;3.90;;;;;;;29.12;100.00;99441.79;109630;1250;59142;-74
2023/08/20 05:19:54;;;;;;;4.60;4.10;;;;;;;29.27;100.00;99445.76;109645;1250;73983;-75
2023/08/20 05:22:21;;;;;;;6.70;4.10;;;;;;;29.45;100.00;99446.67;109592;1250;67912;-71
2023/08/20 05:24:48;;;;;;;4.80;4.30;;;;;;;29.62;98.39;99444.73;109500;1250;72425;-68
2023/08/20 05:27:17;;;;;;;4.20;3.80;;;;;;;29.81;95.67;99444.48;109504;1250;60689;-68
2023/08/20 05:29:45;;;;;;;7.00;4.00;;;;;;;29.99;93.18;99442.84;109480;1250;60369;-70
2023/08/20 05:32:12;;;;;;;4.30;3.30;;;;;;;30.13;91.17;99442.52;109638;1250;73304;-71
2023/08/20 05:34:39;;;;;;;4.20;3.70;;;;;;;30.26;89.54;99437.70;109570;1250;67726;-74
2023/08/20 05:37:06;;;;;;;6.70;3.60;;;;;;;30.42;88.57;99441.39;109610;1250;71175;-74
2023/08/20 05:39:40;;;;;;;5.50;4.30;;;;;;;30.66;88.23;99442.84;109570;1250;59398;-73
2023/08/20 05:42:08;;;;;;;5.20;4.20;;;;;;;30.89;87.92;99440.39;109611;1250;60450;-73
2023/08/20 05:44:42;;;;;;;5.60;3.80;;;;;;;31.03;85.08;99440.61;109505;1250;74348;-73
2023/08/20 05:47:10;;;;;;;5.00;3.60;;;;;;;31.15;84.78;99438.34;109490;1250;66622;-73
2023/08/20 05:49:37;;;;;;;5.20;4.00;;;;;;;31.31;83.48;99439.39;109487;1250;71479;-74
2023/08/20 05:52:05;;;;;;;5.80;3.90;;;;;;;31.50;82.43;99441.69;109603;1250;59000;-74
2023/08/20 05:54:35;;;;;;;4.60;4.10;;;;;;;31.65;80.99;99441.21;109498;1250;59885;-73
2023/08/20 05:57:03;;;;;;;5.40;3.80;;;;;;;31.75;79.61;99440.46;109510;1250;74002;-73
2023/08/20 05:59:29;;;;;;;6.80;4.60;;;;;;;31.86;78.60;99444.64;109520;1250;67879;-73
2023/08/20 06:01:56;;;;;;;5.10;4.60;;;;;;;32.01;77.60;99443.02;109591;1250;73733;-74
2023/08/20 06:04:23;;;;;;;6.80;4.20;;;;;;;32.21;76.34;99443.09;109541;1250;59212;-74
2023/08/20 06:06:50;;;;;;;4.80;3.80;;;;;;;32.42;72.26;99442.56;109613;1251;59084;-73
2023/08/20 06:09:17;;;;;;;4.30;3.70;;;;;;;32.72;68.45;99444.92;109584;1250;74622;-73
2023/08/20 06:11:44;;;;;;;5.00;3.40;;;;;;;33.04;64.19;99438.67;109621;1250;68630;-72
2023/08/20 06:14:11;;;;;;;4.40;3.90;;;;;;;33.22;60.64;99438.95;109523;1250;72504;-72
2023/08/20 06:16:37;;;;;;;4.80;3.50;;;;;;;33.32;60.11;99438.48;109596;1250;60353;-73
2023/08/20 06:19:04;;;;;;;5.10;3.50;;;;;;;33.44;60.74;99445.39;109652;1250;58979;-76
2023/08/20 06:21:31;;;;;;;4.90;3.30;;;;;;;33.67;59.65;99445.83;109761;1250;73501;-72
2023/08/20 06:23:58;;;;;;;4.50;3.70;;;;;;;33.92;57.12;99447.02;109662;1250;66419;-73
2023/08/20 06:26:24;;;;;;;4.30;3.50;;;;;;;34.06;55.54;99447.12;109630;1250;71385;-75
2023/08/20 06:28:51;;;;;;;5.20;3.70;;;;;;;34.13;54.86;99444.04;109666;1250;60060;-75
2023/08/20 06:31:18;;;;;;;7.90;3.70;;;;;;;34.05;54.13;99444.02;109654;1250;58890;-75
2023/08/20 06:33:44;;;;;;;4.30;3.90;;;;;;;34.08;53.97;99447.17;109700;1250;73369;-74
2023/08/20 06:36:11;;;;;;;12.20;3.80;;;;;;;34.25;53.22;99447.77;109664;1249;66616;-74
2023/08/20 06:38:38;;;;;;;5.30;3.90;;;;;;;34.49;52.34;99451.45;109545;1252;72723;-74
2023/08/20 06:41:04;;;;;;;6.80;3.80;;;;;;;34.73;51.38;99448.11;109569;1250;58980;-76
2023/08/20 06:43:31;;;;;;;4.20;3.50;;;;;;;34.87;51.07;99445.84;109648;1250;60395;-75
2023/08/20 06:46:04;;;;;;;6.30;3.40;;;;;;;35.07;50.25;99440.54;109501;1251;72991;-74
2023/08/20 06:48:32;;;;;;;6.70;3.60;;;;;;;35.23;48.62;99436.67;109657;1250;67880;-75
2023/08/20 06:51:15;;;;;;;7.00;3.30;;;;;;;35.47;47.33;99436.50;109651;1250;71304;-74
2023/08/20 06:53:42;;;;;;;4.60;3.40;;;;;;;35.68;46.60;99439.95;109552;1250;60840;-76
2023/08/20 06:56:09;;;;;;;6.30;4.00;;;;;;;35.88;45.36;99434.71;109601;1250;60424;-76
2023/08/20 06:58:36;;;;;;;5.40;3.30;;;;;;;36.16;45.01;99435.24;109696;1250;74465;-74
2023/08/20 07:01:09;;;;;;;6.90;3.70;;;;;;;36.35;43.71;99434.98;109633;1250;66686;-75
2023/08/20 07:03:37;;;;;;;5.50;3.10;;;;;;;36.15;42.35;99438.85;109638;1250;72433;-76
2023/08/20 07:06:04;;;;;;;3.90;2.90;;;;;;;35.87;41.75;99436.36;109647;1250;60386;-74
2023/08/20 07:08:30;;;;;;;3.30;3.00;;;;;;;35.67;42.26;99440.10;109643;1250;59298;-74
2023/08/20 07:10:57;;;;;;;2.80;2.60;;;;;;;35.54;43.30;99443.60;109731;1250;73779;-75
2023/08/20 07:13:24;;;;;;;3.70;3.40;;;;;;;35.59;43.92;99449.49;109750;1250;67822;-74
2023/08/20 07:15:51;;;;;;;5.50;3.40;;;;;;;35.76;44.79;99455.23;109614;1251;72426;-69
2023/08/20 07:18:17;;;;;;;6.40;3.40;;;;;;;36.09;45.19;99453.56;109667;1250;59210;-76
2023/08/20 07:20:44;;;;;;;4.00;3.30;;;;;;;36.33;44.78;99447.43;109708;1250;59432;-74
2023/08/20 07:23:11;;;;;;;4.90;4.20;;;;;;;36.37;44.69;99444.73;109677;1250;74496;-76
2023/08/20 07:25:38;;;;;;;4.70;4.20;;;;;;;36.22;44.40;99447.41;109685;1250;67774;-69
2023/08/20 07:28:05;;;;;;;3.90;3.60;;;;;;;35.89;45.06;99452.33;109636;1251;72650;-78
2023/08/20 07:30:32;;;;;;;5.70;3.60;;;;;;;35.53;45.97;99449.87;109592;1251;60276;-71
2023/08/20 07:33:05;;;;;;;6.10;3.90;;;;;;;35.18;47.54;99451.84;109501;1250;59332;-65
2023/08/20 07:35:35;;;;;;;5.00;4.00;;;;;;;34.73;48.76;99451.52;109697;1250;75664;-65
2023/08/20 07:38:02;;;;;;;6.10;3.70;;;;;;;34.26;50.55;99450.18;109637;1250;67197;-65
2023/08/20 07:40:29;;;;;;;4.90;3.80;;;;;;;33.86;53.37;99455.53;109692;1250;71577;-65
2023/08/20 07:42:56;;;;;;;7.00;4.80;;;;;;;33.51;56.49;99453.14;109643;1250;60159;-66
2023/08/20 07:45:23;;;;;;;6.30;4.60;;;;;;;33.25;58.61;99453.12;109728;1250;59992;-65
2023/08/20 07:47:49;;;;;;;4.80;4.20;;;;;;;32.98;59.74;99452.05;109706;1250;58914;-64
2023/08/20 07:50:16;;;;;;;6.50;4.40;;;;;;;32.72;61.65;99449.98;109668;1250;67083;-66
2023/08/20 07:52:43;;;;;;;4.90;3.90;;;;;;;32.50;62.45;99454.25;109687;1250;71787;-64
2023/08/20 07:55:09;;;;;;;4.60;4.20;;;;;;;32.28;62.52;99453.92;109690;1250;59020;-65
2023/08/20 07:57:36;;;;;;;5.90;4.50;;;;;;;32.00;63.36;99452.27;109656;1250;58982;-64
2023/08/20 08:00:04;;;;;;;4.50;4.00;;;;;;;31.72;65.13;99453.67;109759;1250;74613;-64
2023/08/20 08:02:37;;;;;;;6.90;3.40;;;;;;;31.43;66.55;99459.43;109679;1249;67054;-65
2023/08/20 08:05:04;;;;;;;5.40;3.70;;;;;;;31.21;68.91;99452.23;109654;1250;72450;-64
2023/08/20 08:07:31;;;;;;;3.80;3.40;;;;;;;31.01;71.42;99453.64;109651;1253;59010;-65
2023/08/20 08:09:58;;;;;;;5.90;3.10;;;;;;;30.81;75.37;99453.65;109770;1250;60198;-66
2023/08/20 08:12:24;;;;;;;4.20;3.50;;;;;;;30.62;77.01;99456.91;109670;1250;74688;-64
2023/08/20 08:14:51;;;;;;;3.60;3.30;;;;;;;30.42;77.81;99459.17;109662;1250;67700;-65
2023/08/20 08:17:17;;;;;;;5.00;3.60;;;;;;;30.26;80.54;99461.90;109620;1250;59892;-64
2023/08/20 08:19:44;;;;;;;3.40;3.10;;;;;;;30.07;82.41;99464.45;109640;1254;60477;-64
2023/08/20 08:22:11;;;;;;;3.90;3.60;;;;;;;29.88;83.11;99466.05;109695;1252;59165;-64
2023/08/20 08:24:37;;;;;;;6.60;3.40;;;;;;;29.72;82.45;99464.38;109724;1250;73198;-64
2023/08/20 08:27:04;;;;;;;8.70;3.50;;;;;;;29.60;82.72;99463.40;109690;1250;67618;-64
2023/08/20 08:29:31;;;;;;;3.60;3.40;;;;;;;29.53;84.52;99471.45;109703;1250;71775;-65
2023/08/20 08:31:58;;;;;;;4.30;3.50;;;;;;;29.45;86.58;99470.30;109685;1250;60582;-65
2023/08/20 08:34:24;;;;;;;6.20;3.50;;;;;;;29.38;89.33;99472.30;109616;1250;59155;-65
2023/08/20 08:36:51;;;;;;;6.20;3.60;;;;;;;29.35;90.88;99467.95;109608;1251;74434;-64
2023/08/20 08:39:17;;;;;;;5.50;5.10;;;;;;;29.33;92.63;99469.79;109619;1250;67723;-64
2023/08/20 08:41:44;;;;;;;5.70;4.50;;;;;;;29.30;95.30;99470.31;109644;1250;72450;-64
2023/08/20 08:44:11;;;;;;;7.30;5.00;;;;;;;29.33;98.33;99470.02;109556;1250;60035;-64
2023/08/20 08:46:38;;;;;;;7.00;5.50;;;;;;;29.38;100.00;99465.49;109519;1250;60120;-64
2023/08/20 08:49:05;;;;;;;8.60;5.80;;;;;;;29.43;100.00;99467.52;109666;1250;73473;-64
2023/08/20 08:51:32;;;;;;;6.80;4.90;;;;;;;29.48;100.00;99474.36;109666;1250;69389;-68
2023/08/20 08:53:58;;;;;;;7.90;4.80;;;;;;;29.56;100.00;99467.41;109625;1250;73021;-69
2023/08/20 08:56:25;;;;;;;7.50;5.50;;;;;;;29.74;100.00;99461.52;109644;1250;59022;-67
2023/08/20 08:58:51;;;;;;;8.70;5.20;;;;;;;29.93;100.00;99466.59;109572;1250;58948;-68
2023/08/20 09:01:18;;;;;;;6.70;5.30;;;;;;;30.05;100.00;99470.17;109684;1250;74616;-69
2023/08/20 09:03:45;;;;;;;5.90;5.40;;;;;;;30.17;100.00;99466.50;109742;1250;67984;-72
2023/08/20 09:06:11;;;;;;;8.70;5.80;;;;;;;30.42;100.00;99464.98;109603;1250;70484;-76
2023/08/20 09:08:38;;;;;;;6.40;5.80;;;;;;;30.75;100.00;99464.96;109598;1250;59171;-66
2023/08/20 09:11:05;;;;;;;5.80;5.10;;;;;;;30.89;100.00;99462.08;109724;1250;59030;-66
2023/08/20 09:13:35;;;;;;;6.80;5.60;;;;;;;30.93;100.00;99461.85;109673;1250;74381;-66
2023/08/20 09:16:19;;;;;;;9.00;5.90;;;;;;;31.04;100.00;99458.02;109673;1250;67003;-65
2023/08/20 09:18:46;;;;;;;8.10;6.40;;;;;;;31.36;98.45;99456.77;109620;1250;71225;-68
2023/08/20 09:21:13;;;;;;;12.10;6.80;;;;;;;31.64;96.52;99455.79;109604;1250;60199;-65
2023/08/20 09:23:40;;;;;;;7.20;5.90;;;;;;;31.91;95.03;99459.70;109722;1250;59278;-66
2023/08/20 09:26:07;;;;;;;6.70;5.60;;;;;;;32.14;93.30;99459.02;109644;1250;74704;-73
2023/08/20 09:28:44;;;;;;;5.60;5.10;;;;;;;32.28;89.70;99460.56;109635;1250;68016;-64
2023/08/20 09:31:11;;;;;;;8.20;5.40;;;;;;;32.61;85.80;99457.73;109647;1250;71273;-60
2023/08/20 09:33:53;;;;;;;5.40;4.70;;;;;;;32.95;83.01;99457.15;109706;1250;59856;-61
2023/08/20 09:36:30;;;;;;;9.30;5.60;;;;;;;33.31;83.60;99456.54;109623;1250;58925;-61
2023/08/20 09:38:56;;;;;;;7.90;5.00;;;;;;;33.57;82.00;99453.67;109619;1250;73916;-73
2023/08/20 09:41:23;;;;;;;5.10;4.70;;;;;;;33.79;77.88;99453.13;109703;1250;67915;-67
2023/08/20 09:43:54;;;;;;;6.90;5.00;;;;;;;34.01;77.10;99451.00;109587;1250;72609;-63
2023/08/20 09:46:20;;;;;;;5.50;4.50;;;;;;;34.17;73.89;99456.34;109348;1250;61571;-61
2023/08/20 09:48:47;;;;;;;8.10;5.50;;;;;;;34.26;71.19;99453.95;109622;1250;60144;-65
2023/08/20 09:51:13;;;;;;;10.50;5.70;;;;;;;34.18;70.74;99456.14;109666;1250;73220;-64
2023/08/20 09:53:45;;;;;;;12.20;5.80;;;;;;;33.91;70.14;99453.07;109592;1250;66579;-62
2023/08/20 09:56:19;;;;;;;6.40;4.60;;;;;;;33.74;71.76;99454.81;109474;1250;71237;-65
2023/08/20 09:58:45;;;;;;;7.00;4.70;;;;;;;33.91;69.75;99454.27;109545;1252;58943;-66
2023/08/20 10:01:12;;;;;;;5.40;4.50;;;;;;;34.17;67.46;99450.33;109754;1250;59023;-64
2023/08/20 10:03:39;;;;;;;5.00;4.30;;;;;;;34.48;65.70;99451.56;109519;1250;74393;-63
2023/08/20 10:06:06;;;;;;;7.80;4.80;;;;;;;34.72;64.14;99450.21;109524;1250;66654;-64
2023/08/20 10:08:33;;;;;;;7.00;4.40;;;;;;;34.93;61.92;99449.44;109415;1250;72674;-61
2023/08/20 10:10:59;;;;;;;4.30;3.70;;;;;;;35.03;57.46;99447.23;109514;1250;60364;-73
2023/08/20 10:13:26;;;;;;;5.40;4.80;;;;;;;35.08;54.89;99443.70;109682;1250;58855;-67
2023/08/20 10:15:54;;;;;;;6.00;4.20;;;;;;;35.16;54.84;99440.48;109506;1250;74369;-72
2023/08/20 10:18:22;;;;;;;14.40;12.70;;;;;;;35.87;54.92;99440.52;109473;1250;66970;-72
2023/08/20 10:20:51;;;;;;;7.50;5.60;;;;;;;36.99;51.16;99436.11;109658;1250;72452;-70
2023/08/20 10:23:23;;;;;;;5.00;4.20;;;;;;;37.92;45.39;99432.37;109637;1250;60143;-70
2023/08/20 10:25:52;;;;;;;5.50;4.70;;;;;;;38.57;43.13;99428.15;109585;1251;60259;-71
2023/08/20 10:28:24;;;;;;;7.20;4.50;;;;;;;39.13;41.83;99423.48;109673;1254;75698;-70
2023/08/20 10:31:15;;;;;;;8.10;5.60;;;;;;;39.42;40.84;99420.92;109554;1250;67978;-70
2023/08/20 10:33:50;;;;;;;8.40;5.00;;;;;;;39.67;39.82;99420.23;109666;1250;72812;-69
2023/08/20 10:36:22;;;;;;;7.70;4.30;;;;;;;39.92;37.70;99422.29;109572;1250;60064;-70
2023/08/20 10:38:49;;;;;;;6.80;3.80;;;;;;;40.00;36.52;99418.65;109652;1250;60957;-69
2023/08/20 10:41:18;;;;;;;6.60;3.70;;;;;;;40.17;36.38;99417.75;109629;1250;74423;-72
2023/08/20 10:43:48;;;;;;;4.50;3.00;;;;;;;40.27;35.85;99411.48;109516;1251;67778;-71
2023/08/20 10:46:18;;;;;;;4.40;3.80;;;;;;;40.27;35.44;99407.91;109620;1250;72435;-69
2023/08/20 10:48:52;;;;;;;4.70;3.20;;;;;;;40.39;35.08;99408.84;109625;1250;61072;-67
2023/08/20 10:51:25;;;;;;;4.80;3.20;;;;;;;40.54;33.95;99405.64;109664;1250;59002;-67
2023/08/20 10:54:01;;;;;;;3.90;3.30;;;;;;;40.48;33.46;99404.49;109594;1255;74365;-69
2023/08/20 10:56:48;;;;;;;4.50;3.40;;;;;;;40.30;33.53;99407.16;109669;1250;66353;-69
2023/08/20 10:59:16;;;;;;;4.20;3.80;;;;;;;39.90;34.00;99405.54;109586;1250;72487;-68
2023/08/20 11:01:47;;;;;;;4.40;3.80;;;;;;;39.56;33.99;99398.83;109635;1250;59206;-69
2023/08/20 11:04:15;;;;;;;4.00;3.50;;;;;;;39.64;34.37;99396.23;109564;1250;58928;-70
2023/08/20 11:06:42;;;;;;;3.70;3.40;;;;;;;39.93;34.55;99397.35;109612;1250;74837;-73
2023/08/20 11:09:09;;;;;;;6.20;3.30;;;;;;;39.79;34.19;99391.79;109686;1250;66778;-72
2023/08/20 11:11:37;;;;;;;3.60;3.30;;;;;;;39.15;35.07;99382.69;109693;1250;72804;-75
2023/08/20 11:14:07;;;;;;;3.60;3.20;;;;;;;38.60;35.63;99375.98;109539;1251;60161;-72
2023/08/20 11:16:34;;;;;;;3.30;3.00;;;;;;;38.18;36.37;99379.90;109646;1250;60318;-76
2023/08/20 11:19:01;;;;;;;3.40;3.10;;;;;;;37.76;36.95;99379.32;109643;1250;73308;-71
2023/08/20 11:21:28;;;;;;;4.60;3.50;;;;;;;37.47;38.12;99381.98;109447;1251;66076;-69
2023/08/20 11:23:55;;;;;;;4.10;3.50;;;;;;;37.28;38.94;99380.66;109647;1251;71136;-68
2023/08/20 11:26:21;;;;;;;4.70;3.30;;;;;;;37.24;39.59;99379.51;109560;1251;60650;-70